sensor_id;sensor_type;location;lat;lon;timestamp;P1;durP1;ratioP1;P2;durP2;ratioP2
48849;SDS011;63210;53.370;6.770;2022-10-16T02:32:48;5.82;;;1.50;;
48849;SDS011;63210;53.370;6.770;2022-10-16T03:04:49;5.32;;;1.60;;
48849;SDS011;63210;53.370;6.770;2022-10-16T03:07:19;3.00;;;1.60;;
48849;SDS011;63210;53.370;6.770;2022-10-16T03:16:08;3.35;;;1.60;;
48849;SDS011;63210;53.370;6.770;2022-10-16T03:32:38;6.30;;;1.80;;
48849;SDS011;63210;53.370;6.770;2022-10-16T03:35:09;7.50;;;1.90;;
48849;SDS011;63210;53.370;6.770;2022-10-16T03:41:34;3.10;;;1.55;;
48849;SDS011;63210;53.370;6.770;2022-10-16T03:44:22;2.53;;;1.60;;
48849;SDS011;63210;53.370;6.770;2022-10-16T03:47:03;3.47;;;1.60;;
48849;SDS011;63210;53.370;6.770;2022-10-16T03:53:00;7.07;;;1.60;;
48849;SDS011;63210;53.370;6.770;2022-10-16T03:55:52;3.10;;;1.65;;
48849;SDS011;63210;53.370;6.770;2022-10-16T03:58:23;4.80;;;1.60;;
48849;SDS011;63210;53.370;6.770;2022-10-16T04:01:35;5.28;;;1.63;;
48849;SDS011;63210;53.370;6.770;2022-10-16T04:04:14;5.13;;;1.50;;
48849;SDS011;63210;53.370;6.770;2022-10-16T04:06:45;4.88;;;1.80;;
48849;SDS011;63210;53.370;6.770;2022-10-16T04:12:36;4.50;;;2.03;;
48849;SDS011;63210;53.370;6.770;2022-10-16T04:15:50;3.72;;;1.60;;
48849;SDS011;63210;53.370;6.770;2022-10-16T04:18:32;7.30;;;1.70;;
48849;SDS011;63210;53.370;6.770;2022-10-16T04:24:09;6.47;;;1.90;;
48849;SDS011;63210;53.370;6.770;2022-10-16T04:30:15;3.40;;;1.42;;
48849;SDS011;63210;53.370;6.770;2022-10-16T04:33:16;8.75;;;2.00;;
48849;SDS011;63210;53.370;6.770;2022-10-16T04:35:45;5.82;;;1.73;;
48849;SDS011;63210;53.370;6.770;2022-10-16T04:38:31;3.60;;;1.70;;
48849;SDS011;63210;53.370;6.770;2022-10-16T04:41:08;6.13;;;1.83;;
48849;SDS011;63210;53.370;6.770;2022-10-16T04:44:00;4.32;;;1.90;;
48849;SDS011;63210;53.370;6.770;2022-10-16T04:49:33;2.58;;;1.73;;
48849;SDS011;63210;53.370;6.770;2022-10-16T04:52:02;4.78;;;1.70;;
48849;SDS011;63210;53.370;6.770;2022-10-16T04:54:39;4.07;;;1.88;;
48849;SDS011;63210;53.370;6.770;2022-10-16T04:57:07;3.17;;;1.65;;
48849;SDS011;63210;53.370;6.770;2022-10-16T05:00:08;3.25;;;1.75;;
48849;SDS011;63210;53.370;6.770;2022-10-16T05:05:30;3.70;;;1.60;;
48849;SDS011;63210;53.370;6.770;2022-10-16T05:08:16;6.30;;;1.70;;
48849;SDS011;63210;53.370;6.770;2022-10-16T05:15:14;5.50;;;1.70;;
48849;SDS011;63210;53.370;6.770;2022-10-16T05:17:51;2.63;;;1.40;;
48849;SDS011;63210;53.370;6.770;2022-10-16T05:20:40;7.47;;;1.80;;
48849;SDS011;63210;53.370;6.770;2022-10-16T05:23:29;5.22;;;1.45;;
48849;SDS011;63210;53.370;6.770;2022-10-16T05:29:56;2.85;;;1.50;;
48849;SDS011;63210;53.370;6.770;2022-10-16T05:32:40;3.55;;;1.60;;
48849;SDS011;63210;53.370;6.770;2022-10-16T05:35:16;5.47;;;1.60;;
48849;SDS011;63210;53.370;6.770;2022-10-16T05:37:46;5.28;;;1.60;;
48849;SDS011;63210;53.370;6.770;2022-10-16T05:45:43;4.68;;;1.80;;
48849;SDS011;63210;53.370;6.770;2022-10-16T05:48:15;4.40;;;1.52;;
48849;SDS011;63210;53.370;6.770;2022-10-16T05:51:05;6.35;;;1.75;;
48849;SDS011;63210;53.370;6.770;2022-10-16T05:53:54;5.20;;;1.80;;
48849;SDS011;63210;53.370;6.770;2022-10-16T06:03:34;5.00;;;2.00;;
48849;SDS011;63210;53.370;6.770;2022-10-16T06:06:22;4.97;;;2.53;;
48849;SDS011;63210;53.370;6.770;2022-10-16T06:08:49;4.45;;;2.00;;
48849;SDS011;63210;53.370;6.770;2022-10-16T06:11:24;4.43;;;2.00;;
48849;SDS011;63210;53.370;6.770;2022-10-16T06:14:00;4.10;;;1.90;;
48849;SDS011;63210;53.370;6.770;2022-10-16T06:16:32;3.25;;;2.10;;
48849;SDS011;63210;53.370;6.770;2022-10-16T06:19:15;5.63;;;2.20;;
48849;SDS011;63210;53.370;6.770;2022-10-16T06:21:47;6.53;;;1.98;;
48849;SDS011;63210;53.370;6.770;2022-10-16T06:27:18;6.43;;;2.50;;
48849;SDS011;63210;53.370;6.770;2022-10-16T06:30:30;6.65;;;2.25;;
48849;SDS011;63210;53.370;6.770;2022-10-16T06:33:15;5.75;;;2.33;;
48849;SDS011;63210;53.370;6.770;2022-10-16T06:35:43;3.40;;;2.22;;
48849;SDS011;63210;53.370;6.770;2022-10-16T06:38:12;6.05;;;2.70;;
48849;SDS011;63210;53.370;6.770;2022-10-16T06:40:46;5.03;;;2.60;;
48849;SDS011;63210;53.370;6.770;2022-10-16T06:43:19;2.90;;;2.20;;
48849;SDS011;63210;53.370;6.770;2022-10-16T06:46:12;4.78;;;2.30;;
48849;SDS011;63210;53.370;6.770;2022-10-16T06:51:49;7.63;;;2.78;;
48849;SDS011;63210;53.370;6.770;2022-10-16T06:54:35;6.27;;;2.40;;
48849;SDS011;63210;53.370;6.770;2022-10-16T06:57:32;4.13;;;2.50;;
48849;SDS011;63210;53.370;6.770;2022-10-16T07:00:26;5.68;;;2.30;;
48849;SDS011;63210;53.370;6.770;2022-10-16T07:03:02;7.43;;;2.28;;
48849;SDS011;63210;53.370;6.770;2022-10-16T07:05:41;6.65;;;2.60;;
48849;SDS011;63210;53.370;6.770;2022-10-16T07:08:25;4.25;;;2.20;;
48849;SDS011;63210;53.370;6.770;2022-10-16T07:10:57;4.05;;;2.30;;
48849;SDS011;63210;53.370;6.770;2022-10-16T07:13:42;5.93;;;2.33;;
48849;SDS011;63210;53.370;6.770;2022-10-16T07:16:26;7.10;;;2.42;;
48849;SDS011;63210;53.370;6.770;2022-10-16T07:19:03;7.40;;;2.30;;
48849;SDS011;63210;53.370;6.770;2022-10-16T07:21:42;4.72;;;2.35;;
48849;SDS011;63210;53.370;6.770;2022-10-16T07:28:02;7.32;;;2.38;;
48849;SDS011;63210;53.370;6.770;2022-10-16T07:31:14;9.90;;;2.47;;
48849;SDS011;63210;53.370;6.770;2022-10-16T07:33:48;6.28;;;2.20;;
48849;SDS011;63210;53.370;6.770;2022-10-16T07:36:20;8.25;;;2.00;;
48849;SDS011;63210;53.370;6.770;2022-10-16T07:38:58;12.20;;;2.88;;
48849;SDS011;63210;53.370;6.770;2022-10-16T07:41:41;3.38;;;1.60;;
48849;SDS011;63210;53.370;6.770;2022-10-16T07:44:25;5.93;;;2.10;;
48849;SDS011;63210;53.370;6.770;2022-10-16T07:46:58;7.75;;;1.92;;
48849;SDS011;63210;53.370;6.770;2022-10-16T07:49:27;6.93;;;1.90;;
48849;SDS011;63210;53.370;6.770;2022-10-16T07:52:06;7.13;;;2.50;;
48849;SDS011;63210;53.370;6.770;2022-10-16T07:54:58;7.05;;;1.70;;
48849;SDS011;63210;53.370;6.770;2022-10-16T08:00:25;4.33;;;1.30;;
48849;SDS011;63210;53.370;6.770;2022-10-16T08:03:00;4.47;;;1.50;;
48849;SDS011;63210;53.370;6.770;2022-10-16T08:05:31;3.17;;;1.70;;
48849;SDS011;63210;53.370;6.770;2022-10-16T08:08:17;5.43;;;1.50;;
48849;SDS011;63210;53.370;6.770;2022-10-16T08:13:17;4.45;;;1.70;;
48849;SDS011;63210;53.370;6.770;2022-10-16T08:15:45;7.20;;;2.10;;
48849;SDS011;63210;53.370;6.770;2022-10-16T08:18:14;4.13;;;1.55;;
48849;SDS011;63210;53.370;6.770;2022-10-16T08:21:00;6.65;;;1.85;;
48849;SDS011;63210;53.370;6.770;2022-10-16T08:23:26;7.25;;;2.00;;
48849;SDS011;63210;53.370;6.770;2022-10-16T08:25:52;4.13;;;1.90;;
48849;SDS011;63210;53.370;6.770;2022-10-16T08:28:20;4.90;;;1.83;;
48849;SDS011;63210;53.370;6.770;2022-10-16T08:30:48;3.63;;;2.38;;
48849;SDS011;63210;53.370;6.770;2022-10-16T08:33:16;5.50;;;2.22;;
48849;SDS011;63210;53.370;6.770;2022-10-16T08:35:52;5.07;;;2.63;;
48849;SDS011;63210;53.370;6.770;2022-10-16T08:38:18;5.75;;;2.90;;
48849;SDS011;63210;53.370;6.770;2022-10-16T08:40:44;7.22;;;2.50;;
48849;SDS011;63210;53.370;6.770;2022-10-16T08:50:52;3.85;;;2.00;;
48849;SDS011;63210;53.370;6.770;2022-10-16T08:53:36;8.50;;;2.33;;
48849;SDS011;63210;53.370;6.770;2022-10-16T08:56:10;6.03;;;1.85;;
48849;SDS011;63210;53.370;6.770;2022-10-16T08:58:36;8.85;;;1.95;;
48849;SDS011;63210;53.370;6.770;2022-10-16T09:01:03;5.97;;;1.95;;
48849;SDS011;63210;53.370;6.770;2022-10-16T09:11:33;3.75;;;1.73;;
48849;SDS011;63210;53.370;6.770;2022-10-16T09:14:07;4.07;;;1.55;;
48849;SDS011;63210;53.370;6.770;2022-10-16T09:16:41;4.68;;;1.70;;
48849;SDS011;63210;53.370;6.770;2022-10-16T09:21:58;5.82;;;1.83;;
48849;SDS011;63210;53.370;6.770;2022-10-16T09:24:25;9.80;;;1.98;;
48849;SDS011;63210;53.370;6.770;2022-10-16T09:26:53;8.05;;;1.90;;
48849;SDS011;63210;53.370;6.770;2022-10-16T09:29:21;5.27;;;1.83;;
48849;SDS011;63210;53.370;6.770;2022-10-16T09:31:50;7.75;;;2.00;;
48849;SDS011;63210;53.370;6.770;2022-10-16T09:34:30;6.63;;;2.03;;
48849;SDS011;63210;53.370;6.770;2022-10-16T09:37:07;6.22;;;2.10;;
48849;SDS011;63210;53.370;6.770;2022-10-16T09:39:50;4.07;;;1.92;;
48849;SDS011;63210;53.370;6.770;2022-10-16T09:42:32;7.18;;;1.88;;
48849;SDS011;63210;53.370;6.770;2022-10-16T09:45:01;11.45;;;2.47;;
48849;SDS011;63210;53.370;6.770;2022-10-16T09:47:27;9.32;;;1.80;;
48849;SDS011;63210;53.370;6.770;2022-10-16T09:49:53;8.85;;;1.67;;
48849;SDS011;63210;53.370;6.770;2022-10-16T09:52:23;6.70;;;1.88;;
48849;SDS011;63210;53.370;6.770;2022-10-16T09:55:02;10.27;;;1.90;;
48849;SDS011;63210;53.370;6.770;2022-10-16T09:57:30;8.32;;;1.85;;
48849;SDS011;63210;53.370;6.770;2022-10-16T09:59:57;10.38;;;2.03;;
48849;SDS011;63210;53.370;6.770;2022-10-16T10:05:27;14.27;;;2.17;;
48849;SDS011;63210;53.370;6.770;2022-10-16T10:07:54;13.88;;;2.67;;
48849;SDS011;63210;53.370;6.770;2022-10-16T10:10:24;9.80;;;2.03;;
48849;SDS011;63210;53.370;6.770;2022-10-16T10:12:49;11.35;;;2.67;;
48849;SDS011;63210;53.370;6.770;2022-10-16T10:15:15;7.88;;;2.78;;
48849;SDS011;63210;53.370;6.770;2022-10-16T10:20:27;12.30;;;2.45;;
48849;SDS011;63210;53.370;6.770;2022-10-16T10:22:57;10.57;;;2.20;;
48849;SDS011;63210;53.370;6.770;2022-10-16T10:33:12;12.13;;;2.03;;
48849;SDS011;63210;53.370;6.770;2022-10-16T10:41:06;10.38;;;1.70;;
48849;SDS011;63210;53.370;6.770;2022-10-16T10:54:13;14.63;;;2.30;;
48849;SDS011;63210;53.370;6.770;2022-10-16T10:56:48;9.98;;;2.15;;
48849;SDS011;63210;53.370;6.770;2022-10-16T11:04:30;18.38;;;2.70;;
48849;SDS011;63210;53.370;6.770;2022-10-16T11:06:59;9.70;;;2.10;;
48849;SDS011;63210;53.370;6.770;2022-10-16T11:09:33;11.00;;;1.95;;
48849;SDS011;63210;53.370;6.770;2022-10-16T11:14:58;13.98;;;3.03;;
48849;SDS011;63210;53.370;6.770;2022-10-16T11:17:38;15.02;;;2.22;;
48849;SDS011;63210;53.370;6.770;2022-10-16T11:20:14;9.88;;;1.55;;
48849;SDS011;63210;53.370;6.770;2022-10-16T11:22:46;14.00;;;2.03;;
48849;SDS011;63210;53.370;6.770;2022-10-16T11:25:30;12.30;;;2.53;;
48849;SDS011;63210;53.370;6.770;2022-10-16T11:30:22;8.38;;;1.73;;
48849;SDS011;63210;53.370;6.770;2022-10-16T11:32:54;15.18;;;3.10;;
48849;SDS011;63210;53.370;6.770;2022-10-16T11:35:24;9.52;;;1.92;;
48849;SDS011;63210;53.370;6.770;2022-10-16T11:37:53;11.20;;;2.10;;
48849;SDS011;63210;53.370;6.770;2022-10-16T11:42:48;10.40;;;2.30;;
48849;SDS011;63210;53.370;6.770;2022-10-16T11:47:44;8.77;;;2.20;;
48849;SDS011;63210;53.370;6.770;2022-10-16T11:55:45;10.40;;;1.80;;
48849;SDS011;63210;53.370;6.770;2022-10-16T12:08:45;13.43;;;2.20;;
48849;SDS011;63210;53.370;6.770;2022-10-16T12:11:30;19.20;;;2.38;;
48849;SDS011;63210;53.370;6.770;2022-10-16T12:14:06;14.13;;;2.30;;
48849;SDS011;63210;53.370;6.770;2022-10-16T12:16:36;13.77;;;2.65;;
48849;SDS011;63210;53.370;6.770;2022-10-16T12:19:02;12.40;;;2.30;;
48849;SDS011;63210;53.370;6.770;2022-10-16T12:21:31;13.23;;;2.55;;
48849;SDS011;63210;53.370;6.770;2022-10-16T12:23:58;12.75;;;2.35;;
48849;SDS011;63210;53.370;6.770;2022-10-16T12:26:27;14.45;;;2.08;;
48849;SDS011;63210;53.370;6.770;2022-10-16T12:28:57;9.67;;;2.10;;
48849;SDS011;63210;53.370;6.770;2022-10-16T12:31:36;14.60;;;2.35;;
48849;SDS011;63210;53.370;6.770;2022-10-16T12:34:03;10.38;;;1.75;;
48849;SDS011;63210;53.370;6.770;2022-10-16T12:36:30;7.55;;;1.50;;
48849;SDS011;63210;53.370;6.770;2022-10-16T12:38:55;10.15;;;1.63;;
48849;SDS011;63210;53.370;6.770;2022-10-16T12:43:50;8.80;;;1.48;;
48849;SDS011;63210;53.370;6.770;2022-10-16T12:48:43;13.07;;;2.73;;
48849;SDS011;63210;53.370;6.770;2022-10-16T12:51:21;7.13;;;1.70;;
48849;SDS011;63210;53.370;6.770;2022-10-16T12:56:25;12.98;;;1.83;;
48849;SDS011;63210;53.370;6.770;2022-10-16T13:09:19;14.98;;;2.20;;
48849;SDS011;63210;53.370;6.770;2022-10-16T13:19:36;8.63;;;1.75;;
48849;SDS011;63210;53.370;6.770;2022-10-16T13:22:16;11.45;;;2.03;;
48849;SDS011;63210;53.370;6.770;2022-10-16T13:30:07;8.38;;;1.52;;
48849;SDS011;63210;53.370;6.770;2022-10-16T13:32:33;11.40;;;1.95;;
48849;SDS011;63210;53.370;6.770;2022-10-16T13:35:01;10.23;;;1.67;;
48849;SDS011;63210;53.370;6.770;2022-10-16T13:37:27;11.77;;;1.92;;
48849;SDS011;63210;53.370;6.770;2022-10-16T13:40:12;14.60;;;2.58;;
48849;SDS011;63210;53.370;6.770;2022-10-16T13:42:42;11.85;;;2.28;;
48849;SDS011;63210;53.370;6.770;2022-10-16T13:45:19;9.70;;;1.50;;
48849;SDS011;63210;53.370;6.770;2022-10-16T13:47:45;8.90;;;2.00;;
48849;SDS011;63210;53.370;6.770;2022-10-16T13:50:17;13.00;;;2.05;;
48849;SDS011;63210;53.370;6.770;2022-10-16T13:52:42;5.72;;;1.33;;
48849;SDS011;63210;53.370;6.770;2022-10-16T13:55:15;9.48;;;2.05;;
48849;SDS011;63210;53.370;6.770;2022-10-16T13:57:41;8.48;;;1.67;;
48849;SDS011;63210;53.370;6.770;2022-10-16T14:00:28;8.80;;;1.58;;
48849;SDS011;63210;53.370;6.770;2022-10-16T14:03:11;10.65;;;1.90;;
48849;SDS011;63210;53.370;6.770;2022-10-16T14:05:42;8.32;;;1.83;;
48849;SDS011;63210;53.370;6.770;2022-10-16T14:08:09;9.25;;;1.98;;
48849;SDS011;63210;53.370;6.770;2022-10-16T14:10:36;11.73;;;1.98;;
48849;SDS011;63210;53.370;6.770;2022-10-16T14:13:07;8.13;;;1.98;;
48849;SDS011;63210;53.370;6.770;2022-10-16T14:15:37;16.02;;;2.00;;
48849;SDS011;63210;53.370;6.770;2022-10-16T14:18:03;9.98;;;2.00;;
48849;SDS011;63210;53.370;6.770;2022-10-16T14:20:32;10.27;;;2.08;;
48849;SDS011;63210;53.370;6.770;2022-10-16T14:23:21;10.82;;;2.00;;
48849;SDS011;63210;53.370;6.770;2022-10-16T14:25:43;13.25;;;2.08;;
48849;SDS011;63210;53.370;6.770;2022-10-16T14:30:49;12.30;;;2.35;;
48849;SDS011;63210;53.370;6.770;2022-10-16T14:33:24;11.68;;;1.83;;
48849;SDS011;63210;53.370;6.770;2022-10-16T14:38:34;8.73;;;1.77;;
48849;SDS011;63210;53.370;6.770;2022-10-16T14:41:00;10.73;;;2.45;;
48849;SDS011;63210;53.370;6.770;2022-10-16T14:43:39;14.95;;;2.53;;
48849;SDS011;63210;53.370;6.770;2022-10-16T14:46:16;13.88;;;2.00;;
48849;SDS011;63210;53.370;6.770;2022-10-16T14:48:53;9.90;;;2.25;;
48849;SDS011;63210;53.370;6.770;2022-10-16T14:51:20;10.93;;;2.45;;
48849;SDS011;63210;53.370;6.770;2022-10-16T14:53:49;10.45;;;1.80;;
48849;SDS011;63210;53.370;6.770;2022-10-16T14:56:18;9.20;;;2.05;;
48849;SDS011;63210;53.370;6.770;2022-10-16T14:58:49;13.63;;;2.20;;
48849;SDS011;63210;53.370;6.770;2022-10-16T15:01:18;13.25;;;2.40;;
48849;SDS011;63210;53.370;6.770;2022-10-16T15:03:57;10.45;;;1.80;;
48849;SDS011;63210;53.370;6.770;2022-10-16T15:06:25;9.88;;;1.60;;
48849;SDS011;63210;53.370;6.770;2022-10-16T15:08:50;8.07;;;1.83;;
48849;SDS011;63210;53.370;6.770;2022-10-16T15:11:16;18.45;;;2.70;;
48849;SDS011;63210;53.370;6.770;2022-10-16T15:13:42;13.50;;;2.13;;
48849;SDS011;63210;53.370;6.770;2022-10-16T15:16:10;14.05;;;2.15;;
48849;SDS011;63210;53.370;6.770;2022-10-16T15:18:36;13.70;;;1.73;;
48849;SDS011;63210;53.370;6.770;2022-10-16T15:21:03;7.53;;;1.67;;
48849;SDS011;63210;53.370;6.770;2022-10-16T15:23:29;10.18;;;1.85;;
48849;SDS011;63210;53.370;6.770;2022-10-16T15:25:55;12.00;;;2.55;;
48849;SDS011;63210;53.370;6.770;2022-10-16T15:28:21;13.55;;;1.98;;
48849;SDS011;63210;53.370;6.770;2022-10-16T15:30:48;11.80;;;1.50;;
48849;SDS011;63210;53.370;6.770;2022-10-16T15:33:15;12.40;;;2.50;;
48849;SDS011;63210;53.370;6.770;2022-10-16T15:35:41;10.13;;;2.20;;
48849;SDS011;63210;53.370;6.770;2022-10-16T15:38:06;14.52;;;1.80;;
48849;SDS011;63210;53.370;6.770;2022-10-16T15:40:34;10.90;;;1.65;;
48849;SDS011;63210;53.370;6.770;2022-10-16T15:43:00;8.98;;;2.00;;
48849;SDS011;63210;53.370;6.770;2022-10-16T15:45:25;14.70;;;1.95;;
48849;SDS011;63210;53.370;6.770;2022-10-16T15:47:50;10.23;;;2.67;;
48849;SDS011;63210;53.370;6.770;2022-10-16T15:50:16;8.43;;;1.83;;
48849;SDS011;63210;53.370;6.770;2022-10-16T15:52:41;9.50;;;1.83;;
48849;SDS011;63210;53.370;6.770;2022-10-16T15:55:10;8.30;;;1.60;;
48849;SDS011;63210;53.370;6.770;2022-10-16T15:57:36;18.85;;;2.25;;
48849;SDS011;63210;53.370;6.770;2022-10-16T16:00:05;8.50;;;2.00;;
48849;SDS011;63210;53.370;6.770;2022-10-16T16:02:31;9.50;;;1.70;;
48849;SDS011;63210;53.370;6.770;2022-10-16T16:04:57;13.77;;;2.05;;
48849;SDS011;63210;53.370;6.770;2022-10-16T16:07:22;11.90;;;1.90;;
48849;SDS011;63210;53.370;6.770;2022-10-16T16:09:47;11.93;;;1.67;;
48849;SDS011;63210;53.370;6.770;2022-10-16T16:12:13;10.60;;;2.70;;
48849;SDS011;63210;53.370;6.770;2022-10-16T16:14:40;14.60;;;2.83;;
48849;SDS011;63210;53.370;6.770;2022-10-16T16:17:06;12.10;;;1.60;;
48849;SDS011;63210;53.370;6.770;2022-10-16T16:19:31;15.05;;;2.13;;
48849;SDS011;63210;53.370;6.770;2022-10-16T16:21:57;14.60;;;2.38;;
48849;SDS011;63210;53.370;6.770;2022-10-16T16:24:24;10.85;;;2.00;;
48849;SDS011;63210;53.370;6.770;2022-10-16T16:26:53;12.05;;;2.15;;
48849;SDS011;63210;53.370;6.770;2022-10-16T16:29:18;11.00;;;1.88;;
48849;SDS011;63210;53.370;6.770;2022-10-16T16:31:46;9.82;;;1.92;;
48849;SDS011;63210;53.370;6.770;2022-10-16T16:34:12;16.25;;;2.13;;
48849;SDS011;63210;53.370;6.770;2022-10-16T16:36:39;8.38;;;1.55;;
48849;SDS011;63210;53.370;6.770;2022-10-16T16:39:05;12.23;;;2.20;;
48849;SDS011;63210;53.370;6.770;2022-10-16T16:41:34;12.60;;;1.90;;
48849;SDS011;63210;53.370;6.770;2022-10-16T16:44:03;7.65;;;2.20;;
48849;SDS011;63210;53.370;6.770;2022-10-16T16:46:30;11.63;;;1.83;;
48849;SDS011;63210;53.370;6.770;2022-10-16T16:48:57;7.95;;;1.40;;
48849;SDS011;63210;53.370;6.770;2022-10-16T16:51:23;11.43;;;1.70;;
48849;SDS011;63210;53.370;6.770;2022-10-16T16:53:50;13.18;;;2.13;;
48849;SDS011;63210;53.370;6.770;2022-10-16T16:56:18;14.07;;;2.00;;
48849;SDS011;63210;53.370;6.770;2022-10-16T16:58:51;8.70;;;2.15;;
48849;SDS011;63210;53.370;6.770;2022-10-16T17:01:17;15.85;;;1.90;;
48849;SDS011;63210;53.370;6.770;2022-10-16T17:03:45;19.50;;;2.38;;
48849;SDS011;63210;53.370;6.770;2022-10-16T17:06:11;10.77;;;1.45;;
48849;SDS011;63210;53.370;6.770;2022-10-16T17:08:37;10.38;;;2.40;;
48849;SDS011;63210;53.370;6.770;2022-10-16T17:11:13;12.05;;;1.80;;
48849;SDS011;63210;53.370;6.770;2022-10-16T17:13:46;11.90;;;1.80;;
48849;SDS011;63210;53.370;6.770;2022-10-16T17:16:15;9.15;;;1.58;;
48849;SDS011;63210;53.370;6.770;2022-10-16T17:18:50;7.72;;;1.52;;
48849;SDS011;63210;53.370;6.770;2022-10-16T17:21:16;12.32;;;2.72;;
48849;SDS011;63210;53.370;6.770;2022-10-16T17:23:44;9.20;;;2.38;;
48849;SDS011;63210;53.370;6.770;2022-10-16T17:26:16;14.48;;;2.17;;
48849;SDS011;63210;53.370;6.770;2022-10-16T17:28:49;12.07;;;2.95;;
48849;SDS011;63210;53.370;6.770;2022-10-16T17:31:16;13.35;;;2.35;;
48849;SDS011;63210;53.370;6.770;2022-10-16T17:33:45;10.65;;;2.88;;
48849;SDS011;63210;53.370;6.770;2022-10-16T17:36:19;15.25;;;3.90;;
48849;SDS011;63210;53.370;6.770;2022-10-16T17:38:57;16.48;;;4.32;;
48849;SDS011;63210;53.370;6.770;2022-10-16T17:41:24;17.13;;;4.68;;
48849;SDS011;63210;53.370;6.770;2022-10-16T17:46:21;16.80;;;5.90;;
48849;SDS011;63210;53.370;6.770;2022-10-16T17:48:51;12.50;;;5.50;;
48849;SDS011;63210;53.370;6.770;2022-10-16T17:51:21;17.75;;;5.60;;
48849;SDS011;63210;53.370;6.770;2022-10-16T17:53:47;22.35;;;8.32;;
48849;SDS011;63210;53.370;6.770;2022-10-16T17:56:12;21.92;;;8.10;;
48849;SDS011;63210;53.370;6.770;2022-10-16T17:58:38;18.70;;;7.68;;
48849;SDS011;63210;53.370;6.770;2022-10-16T18:01:14;21.55;;;5.72;;
48849;SDS011;63210;53.370;6.770;2022-10-16T18:03:42;10.00;;;3.65;;
48849;SDS011;63210;53.370;6.770;2022-10-16T18:06:07;13.18;;;3.92;;
48849;SDS011;63210;53.370;6.770;2022-10-16T18:08:33;16.17;;;3.83;;
48849;SDS011;63210;53.370;6.770;2022-10-16T18:11:03;12.55;;;3.58;;
48849;SDS011;63210;53.370;6.770;2022-10-16T18:13:28;8.63;;;2.50;;
48849;SDS011;63210;53.370;6.770;2022-10-16T18:18:45;18.05;;;3.67;;
48849;SDS011;63210;53.370;6.770;2022-10-16T18:21:12;10.93;;;2.92;;
48849;SDS011;63210;53.370;6.770;2022-10-16T18:23:41;15.98;;;3.35;;
48849;SDS011;63210;53.370;6.770;2022-10-16T18:26:07;13.18;;;3.38;;
48849;SDS011;63210;53.370;6.770;2022-10-16T18:28:32;12.48;;;3.15;;
48849;SDS011;63210;53.370;6.770;2022-10-16T18:30:59;12.32;;;3.40;;
48849;SDS011;63210;53.370;6.770;2022-10-16T18:33:27;15.57;;;2.75;;
48849;SDS011;63210;53.370;6.770;2022-10-16T18:35:54;10.40;;;2.83;;
48849;SDS011;63210;53.370;6.770;2022-10-16T18:38:22;18.17;;;3.35;;
48849;SDS011;63210;53.370;6.770;2022-10-16T18:40:48;10.07;;;2.80;;
48849;SDS011;63210;53.370;6.770;2022-10-16T18:43:16;15.35;;;3.35;;
48849;SDS011;63210;53.370;6.770;2022-10-16T18:45:42;12.00;;;3.03;;
48849;SDS011;63210;53.370;6.770;2022-10-16T18:48:07;12.05;;;3.25;;
48849;SDS011;63210;53.370;6.770;2022-10-16T18:50:36;12.90;;;2.92;;
48849;SDS011;63210;53.370;6.770;2022-10-16T18:53:01;14.57;;;3.95;;
48849;SDS011;63210;53.370;6.770;2022-10-16T18:55:32;19.88;;;10.60;;
48849;SDS011;63210;53.370;6.770;2022-10-16T18:57:57;17.95;;;7.30;;
48849;SDS011;63210;53.370;6.770;2022-10-16T19:00:23;17.13;;;4.38;;
48849;SDS011;63210;53.370;6.770;2022-10-16T19:02:51;14.45;;;4.60;;
48849;SDS011;63210;53.370;6.770;2022-10-16T19:05:16;12.48;;;4.20;;
48849;SDS011;63210;53.370;6.770;2022-10-16T19:07:44;12.43;;;3.63;;
48849;SDS011;63210;53.370;6.770;2022-10-16T19:10:09;13.93;;;3.22;;
48849;SDS011;63210;53.370;6.770;2022-10-16T19:12:34;13.35;;;3.22;;
48849;SDS011;63210;53.370;6.770;2022-10-16T19:14:59;13.13;;;3.33;;
48849;SDS011;63210;53.370;6.770;2022-10-16T19:17:28;19.13;;;3.90;;
48849;SDS011;63210;53.370;6.770;2022-10-16T19:19:53;17.33;;;3.10;;
48849;SDS011;63210;53.370;6.770;2022-10-16T19:22:20;13.70;;;2.90;;
48849;SDS011;63210;53.370;6.770;2022-10-16T19:25:14;9.00;;;3.05;;
48849;SDS011;63210;53.370;6.770;2022-10-16T19:27:39;14.02;;;3.42;;
48849;SDS011;63210;53.370;6.770;2022-10-16T19:30:08;12.93;;;3.22;;
48849;SDS011;63210;53.370;6.770;2022-10-16T19:32:33;14.18;;;4.22;;
48849;SDS011;63210;53.370;6.770;2022-10-16T19:34:59;12.15;;;3.67;;
48849;SDS011;63210;53.370;6.770;2022-10-16T19:37:24;14.25;;;3.65;;
48849;SDS011;63210;53.370;6.770;2022-10-16T19:39:51;20.90;;;4.70;;
48849;SDS011;63210;53.370;6.770;2022-10-16T19:42:16;16.83;;;4.10;;
48849;SDS011;63210;53.370;6.770;2022-10-16T19:44:42;16.80;;;4.07;;
48849;SDS011;63210;53.370;6.770;2022-10-16T19:47:07;15.40;;;4.20;;
48849;SDS011;63210;53.370;6.770;2022-10-16T19:49:32;17.55;;;4.50;;
48849;SDS011;63210;53.370;6.770;2022-10-16T19:52:01;16.80;;;4.60;;
48849;SDS011;63210;53.370;6.770;2022-10-16T19:54:26;21.23;;;3.78;;
48849;SDS011;63210;53.370;6.770;2022-10-16T19:56:58;11.10;;;3.57;;
48849;SDS011;63210;53.370;6.770;2022-10-16T19:59:24;13.32;;;3.95;;
48849;SDS011;63210;53.370;6.770;2022-10-16T20:01:49;16.52;;;3.30;;
48849;SDS011;63210;53.370;6.770;2022-10-16T20:04:17;19.15;;;4.00;;
48849;SDS011;63210;53.370;6.770;2022-10-16T20:06:45;7.53;;;2.72;;
48849;SDS011;63210;53.370;6.770;2022-10-16T20:09:19;14.65;;;4.03;;
48849;SDS011;63210;53.370;6.770;2022-10-16T20:11:44;17.20;;;3.80;;
48849;SDS011;63210;53.370;6.770;2022-10-16T20:14:10;11.65;;;3.00;;
48849;SDS011;63210;53.370;6.770;2022-10-16T20:16:35;17.08;;;3.72;;
48849;SDS011;63210;53.370;6.770;2022-10-16T20:19:01;11.30;;;2.90;;
48849;SDS011;63210;53.370;6.770;2022-10-16T20:21:28;10.40;;;3.10;;
48849;SDS011;63210;53.370;6.770;2022-10-16T20:23:58;12.77;;;3.28;;
48849;SDS011;63210;53.370;6.770;2022-10-16T20:26:23;15.05;;;3.20;;
48849;SDS011;63210;53.370;6.770;2022-10-16T20:28:53;9.98;;;3.08;;
48849;SDS011;63210;53.370;6.770;2022-10-16T20:31:25;8.95;;;3.38;;
48849;SDS011;63210;53.370;6.770;2022-10-16T20:33:52;10.55;;;2.83;;
48849;SDS011;63210;53.370;6.770;2022-10-16T20:36:21;14.73;;;3.17;;
48849;SDS011;63210;53.370;6.770;2022-10-16T20:38:57;15.25;;;4.05;;
48849;SDS011;63210;53.370;6.770;2022-10-16T20:41:25;13.10;;;4.45;;
48849;SDS011;63210;53.370;6.770;2022-10-16T20:43:53;9.25;;;2.78;;
48849;SDS011;63210;53.370;6.770;2022-10-16T20:46:23;15.80;;;3.17;;
48849;SDS011;63210;53.370;6.770;2022-10-16T20:48:49;15.65;;;3.28;;
48849;SDS011;63210;53.370;6.770;2022-10-16T20:53:47;13.20;;;3.05;;
48849;SDS011;63210;53.370;6.770;2022-10-16T20:56:13;17.75;;;3.40;;
48849;SDS011;63210;53.370;6.770;2022-10-16T20:58:40;15.27;;;3.40;;
48849;SDS011;63210;53.370;6.770;2022-10-16T21:01:11;14.10;;;4.05;;
48849;SDS011;63210;53.370;6.770;2022-10-16T21:03:36;10.95;;;2.80;;
48849;SDS011;63210;53.370;6.770;2022-10-16T21:06:04;11.27;;;3.45;;
48849;SDS011;63210;53.370;6.770;2022-10-16T21:08:45;15.98;;;3.58;;
48849;SDS011;63210;53.370;6.770;2022-10-16T21:11:21;14.98;;;4.07;;
48849;SDS011;63210;53.370;6.770;2022-10-16T21:13:52;10.63;;;2.92;;
48849;SDS011;63210;53.370;6.770;2022-10-16T21:16:22;15.07;;;4.05;;
48849;SDS011;63210;53.370;6.770;2022-10-16T21:18:48;14.15;;;3.22;;
48849;SDS011;63210;53.370;6.770;2022-10-16T21:21:20;19.02;;;3.55;;
48849;SDS011;63210;53.370;6.770;2022-10-16T21:23:47;11.57;;;3.85;;
48849;SDS011;63210;53.370;6.770;2022-10-16T21:26:12;12.32;;;3.95;;
48849;SDS011;63210;53.370;6.770;2022-10-16T21:28:38;13.15;;;3.90;;
48849;SDS011;63210;53.370;6.770;2022-10-16T21:31:10;13.88;;;4.28;;